sensor_id;sensor_type;location;lat;lon;timestamp;temperature;humidity
17128;DHT22;8679;50.842;4.322;2022-11-20T00:01:03;4.50;99.90
17128;DHT22;8679;50.842;4.322;2022-11-20T00:03:29;4.40;99.90
17128;DHT22;8679;50.842;4.322;2022-11-20T00:06:00;4.40;99.90
17128;DHT22;8679;50.842;4.322;2022-11-20T00:08:25;4.50;99.90
17128;DHT22;8679;50.842;4.322;2022-11-20T00:10:51;4.50;99.90
17128;DHT22;8679;50.842;4.322;2022-11-20T00:13:17;4.50;99.90
17128;DHT22;8679;50.842;4.322;2022-11-20T00:15:42;4.50;99.90
17128;DHT22;8679;50.842;4.322;2022-11-20T00:18:08;4.50;99.90
17128;DHT22;8679;50.842;4.322;2022-11-20T00:20:36;4.50;99.90
17128;DHT22;8679;50.842;4.322;2022-11-20T00:23:02;4.50;99.90
17128;DHT22;8679;50.842;4.322;2022-11-20T00:25:28;4.50;99.90
17128;DHT22;8679;50.842;4.322;2022-11-20T00:27:55;4.40;99.90
17128;DHT22;8679;50.842;4.322;2022-11-20T00:30:20;4.50;99.90
17128;DHT22;8679;50.842;4.322;2022-11-20T00:32:46;4.50;99.90
17128;DHT22;8679;50.842;4.322;2022-11-20T00:35:12;4.40;99.90
17128;DHT22;8679;50.842;4.322;2022-11-20T00:37:37;4.40;99.90
17128;DHT22;8679;50.842;4.322;2022-11-20T00:40:03;4.40;99.90
17128;DHT22;8679;50.842;4.322;2022-11-20T00:42:29;4.40;99.90
17128;DHT22;8679;50.842;4.322;2022-11-20T00:44:56;4.40;99.90
17128;DHT22;8679;50.842;4.322;2022-11-20T00:47:21;4.40;99.90
17128;DHT22;8679;50.842;4.322;2022-11-20T00:49:47;4.40;99.90
17128;DHT22;8679;50.842;4.322;2022-11-20T00:52:13;4.40;99.90
17128;DHT22;8679;50.842;4.322;2022-11-20T00:54:38;4.50;99.90
17128;DHT22;8679;50.842;4.322;2022-11-20T00:57:04;4.50;99.90
17128;DHT22;8679;50.842;4.322;2022-11-20T00:59:29;4.40;99.90
17128;DHT22;8679;50.842;4.322;2022-11-20T01:01:55;4.50;99.90
17128;DHT22;8679;50.842;4.322;2022-11-20T01:04:21;4.50;99.90
17128;DHT22;8679;50.842;4.322;2022-11-20T01:06:46;4.40;99.90
17128;DHT22;8679;50.842;4.322;2022-11-20T01:09:14;4.50;99.90
17128;DHT22;8679;50.842;4.322;2022-11-20T01:11:42;4.50;99.90
17128;DHT22;8679;50.842;4.322;2022-11-20T01:14:16;4.50;99.90
17128;DHT22;8679;50.842;4.322;2022-11-20T01:16:44;4.50;99.90
17128;DHT22;8679;50.842;4.322;2022-11-20T01:19:16;4.50;99.90
17128;DHT22;8679;50.842;4.322;2022-11-20T01:21:43;4.40;99.90
17128;DHT22;8679;50.842;4.322;2022-11-20T01:24:14;4.40;99.90
17128;DHT22;8679;50.842;4.322;2022-11-20T01:26:41;4.50;99.90
17128;DHT22;8679;50.842;4.322;2022-11-20T01:29:19;4.50;99.90
17128;DHT22;8679;50.842;4.322;2022-11-20T01:31:45;4.50;99.90
17128;DHT22;8679;50.842;4.322;2022-11-20T01:34:13;4.50;99.90
17128;DHT22;8679;50.842;4.322;2022-11-20T01:36:41;4.50;99.90
17128;DHT22;8679;50.842;4.322;2022-11-20T01:39:16;4.50;99.90
17128;DHT22;8679;50.842;4.322;2022-11-20T01:41:42;4.50;99.90
17128;DHT22;8679;50.842;4.322;2022-11-20T01:44:50;4.50;99.90
17128;DHT22;8679;50.842;4.322;2022-11-20T01:47:34;4.40;99.90
17128;DHT22;8679;50.842;4.322;2022-11-20T01:50:10;4.40;99.90
17128;DHT22;8679;50.842;4.322;2022-11-20T01:52:44;4.40;99.90
17128;DHT22;8679;50.842;4.322;2022-11-20T01:55:15;4.50;99.90
17128;DHT22;8679;50.842;4.322;2022-11-20T01:57:43;4.40;99.90
17128;DHT22;8679;50.842;4.322;2022-11-20T02:00:12;4.40;99.90
17128;DHT22;8679;50.842;4.322;2022-11-20T02:02:41;4.30;99.90
17128;DHT22;8679;50.842;4.322;2022-11-20T02:07:47;4.30;99.90
17128;DHT22;8679;50.842;4.322;2022-11-20T02:10:14;4.20;99.90
17128;DHT22;8679;50.842;4.322;2022-11-20T02:12:40;4.20;99.90
17128;DHT22;8679;50.842;4.322;2022-11-20T02:15:24;4.20;99.90
17128;DHT22;8679;50.842;4.322;2022-11-20T02:17:49;4.20;99.90
17128;DHT22;8679;50.842;4.322;2022-11-20T02:20:15;4.20;99.90
17128;DHT22;8679;50.842;4.322;2022-11-20T02:25:20;4.20;99.90
17128;DHT22;8679;50.842;4.322;2022-11-20T02:27:46;4.10;99.90
17128;DHT22;8679;50.842;4.322;2022-11-20T02:30:12;4.20;99.90
17128;DHT22;8679;50.842;4.322;2022-11-20T02:32:39;4.10;99.90
17128;DHT22;8679;50.842;4.322;2022-11-20T02:37:59;4.10;99.90
17128;DHT22;8679;50.842;4.322;2022-11-20T02:40:26;4.10;99.90
17128;DHT22;8679;50.842;4.322;2022-11-20T02:42:52;4.10;99.90
17128;DHT22;8679;50.842;4.322;2022-11-20T02:45:18;4.20;99.90
17128;DHT22;8679;50.842;4.322;2022-11-20T02:47:44;4.10;99.90
17128;DHT22;8679;50.842;4.322;2022-11-20T02:50:10;4.10;99.90
17128;DHT22;8679;50.842;4.322;2022-11-20T02:52:38;4.10;99.90
17128;DHT22;8679;50.842;4.322;2022-11-20T02:55:04;4.10;99.90
17128;DHT22;8679;50.842;4.322;2022-11-20T02:57:29;4.10;99.90
17128;DHT22;8679;50.842;4.322;2022-11-20T02:59:55;4.10;99.90
17128;DHT22;8679;50.842;4.322;2022-11-20T03:02:21;4.10;99.90
17128;DHT22;8679;50.842;4.322;2022-11-20T03:04:46;4.10;99.90
17128;DHT22;8679;50.842;4.322;2022-11-20T03:07:12;4.10;99.90
17128;DHT22;8679;50.842;4.322;2022-11-20T03:09:38;4.10;99.90
17128;DHT22;8679;50.842;4.322;2022-11-20T03:12:04;4.10;99.90
17128;DHT22;8679;50.842;4.322;2022-11-20T03:14:29;4.10;99.90
17128;DHT22;8679;50.842;4.322;2022-11-20T03:16:55;4.10;99.90
17128;DHT22;8679;50.842;4.322;2022-11-20T03:19:21;4.10;99.90
17128;DHT22;8679;50.842;4.322;2022-11-20T03:21:47;4.10;99.90
17128;DHT22;8679;50.842;4.322;2022-11-20T03:24:13;4.20;99.90
17128;DHT22;8679;50.842;4.322;2022-11-20T03:26:39;4.20;99.90
17128;DHT22;8679;50.842;4.322;2022-11-20T03:29:05;4.20;99.90
17128;DHT22;8679;50.842;4.322;2022-11-20T03:31:36;4.20;99.90
17128;DHT22;8679;50.842;4.322;2022-11-20T03:34:03;4.10;99.90
17128;DHT22;8679;50.842;4.322;2022-11-20T03:36:29;4.20;99.90
17128;DHT22;8679;50.842;4.322;2022-11-20T03:38:56;4.10;99.90
17128;DHT22;8679;50.842;4.322;2022-11-20T03:41:24;4.20;99.90
17128;DHT22;8679;50.842;4.322;2022-11-20T03:43:55;4.20;99.90
17128;DHT22;8679;50.842;4.322;2022-11-20T03:46:21;4.20;99.90
17128;DHT22;8679;50.842;4.322;2022-11-20T03:48:47;4.20;99.90
17128;DHT22;8679;50.842;4.322;2022-11-20T03:51:19;4.20;99.90
17128;DHT22;8679;50.842;4.322;2022-11-20T03:53:46;4.20;99.90
17128;DHT22;8679;50.842;4.322;2022-11-20T03:56:14;4.30;99.90
17128;DHT22;8679;50.842;4.322;2022-11-20T03:58:40;4.30;99.90
17128;DHT22;8679;50.842;4.322;2022-11-20T04:01:07;4.40;99.90
17128;DHT22;8679;50.842;4.322;2022-11-20T04:03:34;4.30;99.90
17128;DHT22;8679;50.842;4.322;2022-11-20T04:06:10;4.30;99.90
17128;DHT22;8679;50.842;4.322;2022-11-20T04:08:37;4.40;99.90
17128;DHT22;8679;50.842;4.322;2022-11-20T04:13:39;4.40;99.90
17128;DHT22;8679;50.842;4.322;2022-11-20T04:16:06;4.40;99.90
17128;DHT22;8679;50.842;4.322;2022-11-20T04:18:32;4.40;99.90
17128;DHT22;8679;50.842;4.322;2022-11-20T04:20:58;4.50;99.90
17128;DHT22;8679;50.842;4.322;2022-11-20T04:23:24;4.50;99.90
17128;DHT22;8679;50.842;4.322;2022-11-20T04:25:50;4.50;99.90
17128;DHT22;8679;50.842;4.322;2022-11-20T04:28:15;4.50;99.90
17128;DHT22;8679;50.842;4.322;2022-11-20T04:30:41;4.50;99.90
17128;DHT22;8679;50.842;4.322;2022-11-20T04:33:07;4.50;99.90
17128;DHT22;8679;50.842;4.322;2022-11-20T04:35:36;4.50;99.90
17128;DHT22;8679;50.842;4.322;2022-11-20T04:38:02;4.60;99.90
17128;DHT22;8679;50.842;4.322;2022-11-20T04:40:28;4.60;99.90
17128;DHT22;8679;50.842;4.322;2022-11-20T04:42:55;4.60;99.90
17128;DHT22;8679;50.842;4.322;2022-11-20T04:45:22;4.60;99.90
17128;DHT22;8679;50.842;4.322;2022-11-20T04:47:47;4.60;99.90
17128;DHT22;8679;50.842;4.322;2022-11-20T04:50:13;4.60;99.90
17128;DHT22;8679;50.842;4.322;2022-11-20T04:52:39;4.60;99.90
17128;DHT22;8679;50.842;4.322;2022-11-20T04:55:05;4.60;99.90
17128;DHT22;8679;50.842;4.322;2022-11-20T04:57:30;4.60;99.90
17128;DHT22;8679;50.842;4.322;2022-11-20T04:59:56;4.60;99.90
17128;DHT22;8679;50.842;4.322;2022-11-20T05:02:22;4.60;99.90
17128;DHT22;8679;50.842;4.322;2022-11-20T05:04:48;4.60;99.90
17128;DHT22;8679;50.842;4.322;2022-11-20T05:07:13;4.70;99.90
17128;DHT22;8679;50.842;4.322;2022-11-20T05:09:39;4.60;99.90
17128;DHT22;8679;50.842;4.322;2022-11-20T05:12:07;4.60;99.90
17128;DHT22;8679;50.842;4.322;2022-11-20T05:14:33;4.60;99.90
17128;DHT22;8679;50.842;4.322;2022-11-20T05:16:59;4.70;99.90
17128;DHT22;8679;50.842;4.322;2022-11-20T05:19:25;4.70;99.90
17128;DHT22;8679;50.842;4.322;2022-11-20T05:21:51;4.70;99.90
17128;DHT22;8679;50.842;4.322;2022-11-20T05:24:16;4.70;99.90
17128;DHT22;8679;50.842;4.322;2022-11-20T05:26:42;4.70;99.90
17128;DHT22;8679;50.842;4.322;2022-11-20T05:29:10;4.70;99.90
17128;DHT22;8679;50.842;4.322;2022-11-20T05:31:39;4.70;99.90
17128;DHT22;8679;50.842;4.322;2022-11-20T05:34:06;4.80;99.90
17128;DHT22;8679;50.842;4.322;2022-11-20T05:36:32;4.70;99.90
17128;DHT22;8679;50.842;4.322;2022-11-20T05:38:57;4.80;99.90
17128;DHT22;8679;50.842;4.322;2022-11-20T05:41:23;4.90;99.90
17128;DHT22;8679;50.842;4.322;2022-11-20T05:43:51;4.90;99.90
17128;DHT22;8679;50.842;4.322;2022-11-20T05:46:19;4.80;99.90
17128;DHT22;8679;50.842;4.322;2022-11-20T05:48:46;4.90;99.90
17128;DHT22;8679;50.842;4.322;2022-11-20T05:51:15;4.90;99.90
17128;DHT22;8679;50.842;4.322;2022-11-20T05:53:41;4.90;99.90
17128;DHT22;8679;50.842;4.322;2022-11-20T05:56:10;4.90;99.90
17128;DHT22;8679;50.842;4.322;2022-11-20T05:58:36;4.90;99.90
17128;DHT22;8679;50.842;4.322;2022-11-20T06:01:32;4.90;99.90
17128;DHT22;8679;50.842;4.322;2022-11-20T06:03:57;4.90;99.90
17128;DHT22;8679;50.842;4.322;2022-11-20T06:06:23;4.90;99.90
17128;DHT22;8679;50.842;4.322;2022-11-20T06:08:50;4.90;99.90
17128;DHT22;8679;50.842;4.322;2022-11-20T06:11:16;4.90;99.90
17128;DHT22;8679;50.842;4.322;2022-11-20T06:13:42;4.90;99.90
17128;DHT22;8679;50.842;4.322;2022-11-20T06:16:09;5.00;99.90
17128;DHT22;8679;50.842;4.322;2022-11-20T06:18:35;5.00;99.90
17128;DHT22;8679;50.842;4.322;2022-11-20T06:21:03;5.00;99.90
17128;DHT22;8679;50.842;4.322;2022-11-20T06:23:31;5.00;99.90
17128;DHT22;8679;50.842;4.322;2022-11-20T06:25:57;5.00;99.90
17128;DHT22;8679;50.842;4.322;2022-11-20T06:28:23;5.10;99.90
17128;DHT22;8679;50.842;4.322;2022-11-20T06:30:48;5.00;99.90
17128;DHT22;8679;50.842;4.322;2022-11-20T06:33:14;5.00;99.90
17128;DHT22;8679;50.842;4.322;2022-11-20T06:35:40;5.00;99.90
17128;DHT22;8679;50.842;4.322;2022-11-20T06:38:05;5.00;99.90
17128;DHT22;8679;50.842;4.322;2022-11-20T06:40:31;5.00;99.90
17128;DHT22;8679;50.842;4.322;2022-11-20T06:42:57;5.00;99.90
17128;DHT22;8679;50.842;4.322;2022-11-20T06:45:22;5.10;99.90
17128;DHT22;8679;50.842;4.322;2022-11-20T06:47:48;5.20;99.90
17128;DHT22;8679;50.842;4.322;2022-11-20T06:50:13;5.10;99.90
17128;DHT22;8679;50.842;4.322;2022-11-20T06:52:39;5.10;99.90
17128;DHT22;8679;50.842;4.322;2022-11-20T06:55:05;5.20;99.90
17128;DHT22;8679;50.842;4.322;2022-11-20T06:57:31;5.20;99.90
17128;DHT22;8679;50.842;4.322;2022-11-20T06:59:56;5.20;99.90
17128;DHT22;8679;50.842;4.322;2022-11-20T07:02:22;5.20;99.90
17128;DHT22;8679;50.842;4.322;2022-11-20T07:04:48;5.30;99.90
17128;DHT22;8679;50.842;4.322;2022-11-20T07:07:13;5.30;99.90
17128;DHT22;8679;50.842;4.322;2022-11-20T07:09:39;5.30;99.90
17128;DHT22;8679;50.842;4.322;2022-11-20T07:12:05;5.20;99.90
17128;DHT22;8679;50.842;4.322;2022-11-20T07:14:30;5.30;99.90
17128;DHT22;8679;50.842;4.322;2022-11-20T07:16:56;5.30;99.90
17128;DHT22;8679;50.842;4.322;2022-11-20T07:19:22;5.30;99.90
17128;DHT22;8679;50.842;4.322;2022-11-20T07:21:47;5.30;99.90
17128;DHT22;8679;50.842;4.322;2022-11-20T07:24:13;5.40;99.90
17128;DHT22;8679;50.842;4.322;2022-11-20T07:26:38;5.40;99.90
17128;DHT22;8679;50.842;4.322;2022-11-20T07:29:04;5.40;99.90
17128;DHT22;8679;50.842;4.322;2022-11-20T07:31:30;5.50;99.90
17128;DHT22;8679;50.842;4.322;2022-11-20T07:33:55;5.50;99.90
17128;DHT22;8679;50.842;4.322;2022-11-20T07:36:21;5.50;99.90
17128;DHT22;8679;50.842;4.322;2022-11-20T07:38:47;5.50;99.90
17128;DHT22;8679;50.842;4.322;2022-11-20T07:41:12;5.60;99.90
17128;DHT22;8679;50.842;4.322;2022-11-20T07:43:38;5.60;99.90
17128;DHT22;8679;50.842;4.322;2022-11-20T07:46:04;5.60;99.90
17128;DHT22;8679;50.842;4.322;2022-11-20T07:48:29;5.70;99.90
17128;DHT22;8679;50.842;4.322;2022-11-20T07:50:56;5.70;99.90
17128;DHT22;8679;50.842;4.322;2022-11-20T07:53:22;5.70;99.90
17128;DHT22;8679;50.842;4.322;2022-11-20T07:55:48;5.80;99.90
17128;DHT22;8679;50.842;4.322;2022-11-20T07:58:13;5.80;99.90
17128;DHT22;8679;50.842;4.322;2022-11-20T08:00:40;5.90;99.90
17128;DHT22;8679;50.842;4.322;2022-11-20T08:03:06;5.90;99.90
17128;DHT22;8679;50.842;4.322;2022-11-20T08:05:32;5.90;99.90
17128;DHT22;8679;50.842;4.322;2022-11-20T08:07:58;6.00;99.90
17128;DHT22;8679;50.842;4.322;2022-11-20T08:10:23;6.00;99.90
17128;DHT22;8679;50.842;4.322;2022-11-20T08:12:51;6.10;99.90
17128;DHT22;8679;50.842;4.322;2022-11-20T08:15:36;6.10;99.90
17128;DHT22;8679;50.842;4.322;2022-11-20T08:18:05;6.10;99.90
17128;DHT22;8679;50.842;4.322;2022-11-20T08:20:31;6.10;99.90
17128;DHT22;8679;50.842;4.322;2022-11-20T08:23:01;6.20;99.90
17128;DHT22;8679;50.842;4.322;2022-11-20T08:25:29;6.20;99.90
17128;DHT22;8679;50.842;4.322;2022-11-20T08:27:57;6.20;99.90
17128;DHT22;8679;50.842;4.322;2022-11-20T08:30:23;6.30;99.90
17128;DHT22;8679;50.842;4.322;2022-11-20T08:32:49;6.30;99.90
17128;DHT22;8679;50.842;4.322;2022-11-20T08:35:14;6.30;99.90
17128;DHT22;8679;50.842;4.322;2022-11-20T08:37:40;6.30;99.90
17128;DHT22;8679;50.842;4.322;2022-11-20T08:40:09;6.40;99.90
17128;DHT22;8679;50.842;4.322;2022-11-20T08:42:35;6.50;99.90
17128;DHT22;8679;50.842;4.322;2022-11-20T08:45:01;6.50;99.90
17128;DHT22;8679;50.842;4.322;2022-11-20T08:47:27;6.50;99.90
17128;DHT22;8679;50.842;4.322;2022-11-20T08:49:52;6.50;99.90
17128;DHT22;8679;50.842;4.322;2022-11-20T08:52:18;6.60;99.90
17128;DHT22;8679;50.842;4.322;2022-11-20T08:54:43;6.60;99.90
17128;DHT22;8679;50.842;4.322;2022-11-20T08:57:09;6.60;99.90
17128;DHT22;8679;50.842;4.322;2022-11-20T08:59:35;6.70;99.90
17128;DHT22;8679;50.842;4.322;2022-11-20T09:02:00;6.70;99.90
17128;DHT22;8679;50.842;4.322;2022-11-20T09:04:26;6.80;99.90
17128;DHT22;8679;50.842;4.322;2022-11-20T09:06:51;6.80;99.90
17128;DHT22;8679;50.842;4.322;2022-11-20T09:09:18;6.80;99.90
17128;DHT22;8679;50.842;4.322;2022-11-20T09:11:44;6.90;99.90
17128;DHT22;8679;50.842;4.322;2022-11-20T09:14:10;6.90;99.90
17128;DHT22;8679;50.842;4.322;2022-11-20T09:16:35;6.90;99.90
17128;DHT22;8679;50.842;4.322;2022-11-20T09:19:01;6.90;99.90
17128;DHT22;8679;50.842;4.322;2022-11-20T09:21:27;7.00;99.90
17128;DHT22;8679;50.842;4.322;2022-11-20T09:23:52;7.00;99.90
17128;DHT22;8679;50.842;4.322;2022-11-20T09:26:18;7.10;99.90
17128;DHT22;8679;50.842;4.322;2022-11-20T09:28:44;7.10;99.90
17128;DHT22;8679;50.842;4.322;2022-11-20T09:31:24;7.20;99.90
17128;DHT22;8679;50.842;4.322;2022-11-20T09:33:50;7.30;99.90
17128;DHT22;8679;50.842;4.322;2022-11-20T09:36:16;7.30;99.90
17128;DHT22;8679;50.842;4.322;2022-11-20T09:38:45;7.30;99.90
17128;DHT22;8679;50.842;4.322;2022-11-20T09:44:31;7.50;99.90
17128;DHT22;8679;50.842;4.322;2022-11-20T09:47:23;7.60;99.90
17128;DHT22;8679;50.842;4.322;2022-11-20T09:50:17;7.60;99.90
17128;DHT22;8679;50.842;4.322;2022-11-20T09:55:35;7.80;99.90
17128;DHT22;8679;50.842;4.322;2022-11-20T10:00:49;7.90;99.90
17128;DHT22;8679;50.842;4.322;2022-11-20T10:03:26;7.90;99.90
17128;DHT22;8679;50.842;4.322;2022-11-20T10:05:55;7.90;99.90
17128;DHT22;8679;50.842;4.322;2022-11-20T10:08:39;8.00;99.90
17128;DHT22;8679;50.842;4.322;2022-11-20T10:11:18;8.10;99.90
17128;DHT22;8679;50.842;4.322;2022-11-20T10:14:02;8.20;99.90
17128;DHT22;8679;50.842;4.322;2022-11-20T10:22:04;8.40;99.90
17128;DHT22;8679;50.842;4.322;2022-11-20T10:24:55;8.50;99.90
17128;DHT22;8679;50.842;4.322;2022-11-20T10:27:37;8.60;99.90
17128;DHT22;8679;50.842;4.322;2022-11-20T10:30:14;8.70;99.90
17128;DHT22;8679;50.842;4.322;2022-11-20T10:32:46;8.90;99.90
17128;DHT22;8679;50.842;4.322;2022-11-20T10:35:27;8.90;99.90
17128;DHT22;8679;50.842;4.322;2022-11-20T10:38:05;8.90;99.90
17128;DHT22;8679;50.842;4.322;2022-11-20T10:40:34;9.00;99.90
17128;DHT22;8679;50.842;4.322;2022-11-20T10:43:04;9.10;99.90
17128;DHT22;8679;50.842;4.322;2022-11-20T10:45:49;9.20;99.90
17128;DHT22;8679;50.842;4.322;2022-11-20T10:48:22;9.30;99.90
17128;DHT22;8679;50.842;4.322;2022-11-20T10:53:51;9.30;99.90
17128;DHT22;8679;50.842;4.322;2022-11-20T10:59:10;9.30;99.90
17128;DHT22;8679;50.842;4.322;2022-11-20T11:01:42;9.30;99.90
17128;DHT22;8679;50.842;4.322;2022-11-20T11:04:45;9.30;99.90
17128;DHT22;8679;50.842;4.322;2022-11-20T11:07:24;9.30;99.90
17128;DHT22;8679;50.842;4.322;2022-11-20T11:09:54;9.40;99.90
17128;DHT22;8679;50.842;4.322;2022-11-20T11:12:21;9.40;99.90
17128;DHT22;8679;50.842;4.322;2022-11-20T11:14:52;9.40;99.90
17128;DHT22;8679;50.842;4.322;2022-11-20T11:17:29;9.30;99.90
17128;DHT22;8679;50.842;4.322;2022-11-20T11:19:59;9.40;99.90
17128;DHT22;8679;50.842;4.322;2022-11-20T11:22:31;9.40;99.90
17128;DHT22;8679;50.842;4.322;2022-11-20T11:24:57;9.40;99.90
17128;DHT22;8679;50.842;4.322;2022-11-20T11:27:23;9.40;99.90
17128;DHT22;8679;50.842;4.322;2022-11-20T11:29:49;9.40;99.90
17128;DHT22;8679;50.842;4.322;2022-11-20T11:32:18;9.40;99.90
17128;DHT22;8679;50.842;4.322;2022-11-20T11:34:45;9.40;99.90
17128;DHT22;8679;50.842;4.322;2022-11-20T11:37:17;9.40;99.90
17128;DHT22;8679;50.842;4.322;2022-11-20T11:39:45;9.30;99.90
17128;DHT22;8679;50.842;4.322;2022-11-20T11:42:16;9.30;99.90
17128;DHT22;8679;50.842;4.322;2022-11-20T11:44:47;9.20;99.90
17128;DHT22;8679;50.842;4.322;2022-11-20T11:47:46;9.10;99.90
17128;DHT22;8679;50.842;4.322;2022-11-20T11:50:22;9.10;99.90
17128;DHT22;8679;50.842;4.322;2022-11-20T11:53:08;9.10;99.90
17128;DHT22;8679;50.842;4.322;2022-11-20T11:55:38;9.10;99.90
17128;DHT22;8679;50.842;4.322;2022-11-20T11:58:17;9.10;99.90
17128;DHT22;8679;50.842;4.322;2022-11-20T12:03:50;9.10;99.90
17128;DHT22;8679;50.842;4.322;2022-11-20T12:06:18;9.00;99.90
17128;DHT22;8679;50.842;4.322;2022-11-20T12:11:34;8.90;99.90
17128;DHT22;8679;50.842;4.322;2022-11-20T12:16:54;8.80;99.90
17128;DHT22;8679;50.842;4.322;2022-11-20T12:19:22;8.80;99.90
17128;DHT22;8679;50.842;4.322;2022-11-20T12:25:19;8.70;99.90
17128;DHT22;8679;50.842;4.322;2022-11-20T12:30:33;8.60;99.90
17128;DHT22;8679;50.842;4.322;2022-11-20T12:46:46;8.70;99.90
17128;DHT22;8679;50.842;4.322;2022-11-20T12:49:47;8.70;99.90
17128;DHT22;8679;50.842;4.322;2022-11-20T12:57:53;8.70;99.90
17128;DHT22;8679;50.842;4.322;2022-11-20T13:00:21;8.70;99.90
17128;DHT22;8679;50.842;4.322;2022-11-20T13:05:30;8.80;99.90
17128;DHT22;8679;50.842;4.322;2022-11-20T13:07:56;8.80;99.90
17128;DHT22;8679;50.842;4.322;2022-11-20T13:10:39;8.80;99.90
17128;DHT22;8679;50.842;4.322;2022-11-20T13:13:23;8.80;99.90
17128;DHT22;8679;50.842;4.322;2022-11-20T13:16:02;8.70;99.90
17128;DHT22;8679;50.842;4.322;2022-11-20T13:18:33;8.60;99.90
17128;DHT22;8679;50.842;4.322;2022-11-20T13:21:01;8.50;99.90
17128;DHT22;8679;50.842;4.322;2022-11-20T13:23:28;8.50;99.90
17128;DHT22;8679;50.842;4.322;2022-11-20T13:26:04;8.50;99.90
17128;DHT22;8679;50.842;4.322;2022-11-20T13:28:31;8.40;99.90
17128;DHT22;8679;50.842;4.322;2022-11-20T13:30:57;8.40;99.90
17128;DHT22;8679;50.842;4.322;2022-11-20T13:33:29;8.40;99.90
17128;DHT22;8679;50.842;4.322;2022-11-20T13:36:02;8.40;99.90
17128;DHT22;8679;50.842;4.322;2022-11-20T13:38:44;8.30;99.90
17128;DHT22;8679;50.842;4.322;2022-11-20T13:41:11;8.30;99.90
17128;DHT22;8679;50.842;4.322;2022-11-20T13:45:08;8.30;99.90
17128;DHT22;8679;50.842;4.322;2022-11-20T13:47:20;8.30;99.90
17128;DHT22;8679;50.842;4.322;2022-11-20T13:49:47;8.30;99.90
17128;DHT22;8679;50.842;4.322;2022-11-20T13:55:20;8.40;99.90
17128;DHT22;8679;50.842;4.322;2022-11-20T14:00:19;8.40;99.90
17128;DHT22;8679;50.842;4.322;2022-11-20T14:05:25;8.50;99.90
17128;DHT22;8679;50.842;4.322;2022-11-20T14:07:52;8.50;99.90
17128;DHT22;8679;50.842;4.322;2022-11-20T14:10:27;8.50;99.90
17128;DHT22;8679;50.842;4.322;2022-11-20T14:12:53;8.50;99.90
17128;DHT22;8679;50.842;4.322;2022-11-20T14:15:33;8.50;99.90
17128;DHT22;8679;50.842;4.322;2022-11-20T14:18:00;8.50;99.90
17128;DHT22;8679;50.842;4.322;2022-11-20T14:20:38;8.50;99.90
17128;DHT22;8679;50.842;4.322;2022-11-20T14:23:04;8.60;99.90
17128;DHT22;8679;50.842;4.322;2022-11-20T14:25:30;8.60;99.90
17128;DHT22;8679;50.842;4.322;2022-11-20T14:28:00;8.60;99.90
17128;DHT22;8679;50.842;4.322;2022-11-20T14:30:43;8.60;99.90
17128;DHT22;8679;50.842;4.322;2022-11-20T14:33:11;8.70;99.90
17128;DHT22;8679;50.842;4.322;2022-11-20T14:35:44;8.70;99.90
17128;DHT22;8679;50.842;4.322;2022-11-20T14:38:13;8.70;99.90
17128;DHT22;8679;50.842;4.322;2022-11-20T14:40:40;8.70;99.90
17128;DHT22;8679;50.842;4.322;2022-11-20T14:45:58;8.70;99.90
17128;DHT22;8679;50.842;4.322;2022-11-20T14:48:33;8.70;99.90
17128;DHT22;8679;50.842;4.322;2022-11-20T14:51:02;8.70;99.90
17128;DHT22;8679;50.842;4.322;2022-11-20T14:53:28;8.70;99.90
17128;DHT22;8679;50.842;4.322;2022-11-20T14:55:59;8.70;99.90
17128;DHT22;8679;50.842;4.322;2022-11-20T14:58:31;8.80;99.90
17128;DHT22;8679;50.842;4.322;2022-11-20T15:01:11;8.80;99.90
17128;DHT22;8679;50.842;4.322;2022-11-20T15:03:40;8.80;99.90
17128;DHT22;8679;50.842;4.322;2022-11-20T15:06:07;8.90;99.90
17128;DHT22;8679;50.842;4.322;2022-11-20T15:08:34;8.90;99.90
17128;DHT22;8679;50.842;4.322;2022-11-20T15:11:00;9.00;99.90
17128;DHT22;8679;50.842;4.322;2022-11-20T15:13:34;9.00;99.90
17128;DHT22;8679;50.842;4.322;2022-11-20T15:16:02;9.00;99.90
17128;DHT22;8679;50.842;4.322;2022-11-20T15:18:37;9.00;99.90
17128;DHT22;8679;50.842;4.322;2022-11-20T15:21:07;9.10;99.90
17128;DHT22;8679;50.842;4.322;2022-11-20T15:23:35;9.10;99.90
17128;DHT22;8679;50.842;4.322;2022-11-20T15:26:01;9.10;99.90
17128;DHT22;8679;50.842;4.322;2022-11-20T15:28:38;9.10;99.90
17128;DHT22;8679;50.842;4.322;2022-11-20T15:31:05;9.20;99.90
17128;DHT22;8679;50.842;4.322;2022-11-20T15:33:32;9.20;99.90
17128;DHT22;8679;50.842;4.322;2022-11-20T15:35:58;9.20;99.90
17128;DHT22;8679;50.842;4.322;2022-11-20T15:38:25;9.20;99.90
17128;DHT22;8679;50.842;4.322;2022-11-20T15:40:51;9.30;99.90
17128;DHT22;8679;50.842;4.322;2022-11-20T15:43:17;9.30;99.90
17128;DHT22;8679;50.842;4.322;2022-11-20T15:45:44;9.30;99.90
17128;DHT22;8679;50.842;4.322;2022-11-20T15:48:23;9.30;99.90
17128;DHT22;8679;50.842;4.322;2022-11-20T15:50:54;9.30;99.90
17128;DHT22;8679;50.842;4.322;2022-11-20T15:53:22;9.30;99.90
17128;DHT22;8679;50.842;4.322;2022-11-20T15:55:47;9.30;99.90
17128;DHT22;8679;50.842;4.322;2022-11-20T15:58:13;9.30;99.90
17128;DHT22;8679;50.842;4.322;2022-11-20T16:00:39;9.30;99.90
17128;DHT22;8679;50.842;4.322;2022-11-20T16:03:05;9.30;99.90
17128;DHT22;8679;50.842;4.322;2022-11-20T16:05:30;9.40;99.90
17128;DHT22;8679;50.842;4.322;2022-11-20T16:07:56;9.40;99.90
17128;DHT22;8679;50.842;4.322;2022-11-20T16:10:23;9.40;99.90
17128;DHT22;8679;50.842;4.322;2022-11-20T16:12:49;9.50;99.90
17128;DHT22;8679;50.842;4.322;2022-11-20T16:15:33;9.50;99.90
17128;DHT22;8679;50.842;4.322;2022-11-20T16:18:13;9.50;99.90
17128;DHT22;8679;50.842;4.322;2022-11-20T16:20:39;9.50;99.90
17128;DHT22;8679;50.842;4.322;2022-11-20T16:23:06;9.40;99.90
17128;DHT22;8679;50.842;4.322;2022-11-20T16:25:32;9.40;99.90
17128;DHT22;8679;50.842;4.322;2022-11-20T16:27:58;9.40;99.90
17128;DHT22;8679;50.842;4.322;2022-11-20T16:30:24;9.30;99.90
17128;DHT22;8679;50.842;4.322;2022-11-20T16:32:50;9.30;99.90
17128;DHT22;8679;50.842;4.322;2022-11-20T16:35:16;9.30;99.90
17128;DHT22;8679;50.842;4.322;2022-11-20T16:37:41;9.30;99.90
17128;DHT22;8679;50.842;4.322;2022-11-20T16:40:09;9.30;99.90
17128;DHT22;8679;50.842;4.322;2022-11-20T16:42:36;9.30;99.90
17128;DHT22;8679;50.842;4.322;2022-11-20T16:45:03;9.40;99.90
17128;DHT22;8679;50.842;4.322;2022-11-20T16:47:33;9.40;99.90
17128;DHT22;8679;50.842;4.322;2022-11-20T16:49:59;9.40;99.90
17128;DHT22;8679;50.842;4.322;2022-11-20T16:52:25;9.40;99.90
17128;DHT22;8679;50.842;4.322;2022-11-20T16:54:50;9.40;99.90
17128;DHT22;8679;50.842;4.322;2022-11-20T16:57:16;9.40;99.90
17128;DHT22;8679;50.842;4.322;2022-11-20T16:59:41;9.40;99.90
17128;DHT22;8679;50.842;4.322;2022-11-20T17:02:09;9.40;99.90
17128;DHT22;8679;50.842;4.322;2022-11-20T17:04:36;9.40;99.90
17128;DHT22;8679;50.842;4.322;2022-11-20T17:07:02;9.40;99.90
17128;DHT22;8679;50.842;4.322;2022-11-20T17:09:28;9.40;99.90
17128;DHT22;8679;50.842;4.322;2022-11-20T17:11:54;9.30;99.90
17128;DHT22;8679;50.842;4.322;2022-11-20T17:14:20;9.30;99.90
17128;DHT22;8679;50.842;4.322;2022-11-20T17:16:46;9.30;99.90
17128;DHT22;8679;50.842;4.322;2022-11-20T17:19:13;9.20;99.90
17128;DHT22;8679;50.842;4.322;2022-11-20T17:21:39;9.20;99.90
17128;DHT22;8679;50.842;4.322;2022-11-20T17:24:10;9.10;99.90
17128;DHT22;8679;50.842;4.322;2022-11-20T17:26:38;9.10;99.90
17128;DHT22;8679;50.842;4.322;2022-11-20T17:29:06;9.10;99.90
17128;DHT22;8679;50.842;4.322;2022-11-20T17:31:33;9.10;99.90